Bryce Canyon, UT

1:58 PM MST on January 30, 2015 (GMT -0700)
Bryce Canyon | Change Station
CLOSE
Current Station
Airport
Location: Bryce Canyon,
Elevation: 7585 ft
Nearby Weather Stations
Active Advisory: Winter Weather Advisory

Elev 7585 ft 37.71 °N, 112.15 °W | Updated 5 minutes ago

Light Snow
Light Snow
32 °F
Feels Like 26 °F
N
6
Wind Variable Wind from SSE

Today
High -- | Low -- °F
--% Chance of Precip.
Yesterday
High -- | Low -- °F
Precip. -- in
7:34 AM 5:50 PM
Waxing Gibbous, 85% visible
Pressure 29.88 in
Visibility -9999.0 miles
Clouds Scattered Clouds 600 ft
Mostly Cloudy 3100 ft
Overcast 3800 ft
Windchill 26 °F
Dew Point 31 °F
Humidity 96%
Rainfall 0.17 in
Snow Depth Not available.
UV 1 out of 12
Pollen .30 out of 12
Air Quality Not available.
Flu Activity Not available.
METAR KBCE 302053Z AUTO 15005KT -SN SCT006 BKN031 OVC038 00/M01 A2997 RMK AO2 SNE19B44 SLP116 P0001 60003 T00001006 58023 $

More Conditions Fewer Conditions

Pressure 29.88 in
Visibility -9999.0 miles
Clouds Scattered Clouds 600 ft
Mostly Cloudy 3100 ft
Overcast 3800 ft
Windchill 26 °F
Dew Point 31 °F
Humidity 96%
Rainfall 0.17 in
Snow Depth Not available.
UV 1 out of 12
Pollen .30 out of 12
Air Quality Not available.
Flu Activity Not available.
METAR KBCE 302053Z AUTO 15005KT -SN SCT006 BKN031 OVC038 00/M01 A2997 RMK AO2 SNE19B44 SLP116 P0001 60003 T00001006 58023 $

More Conditions Fewer Conditions

10-Day Weather Forecast

Almanac

Astronomy

Jan. 30, 2015 Rise Set
Actual Time
Civil Twilight
Nautical Twilight
Astronomical Twilight
Moon
Length of Visible Light
Length of Day
Tomorrow will be .
, % of the Moon is Illuminated

Today's Extremes

State Highs State Lows

Community

WunderPhotos

Upload Photos

1,791,891 photos uploaded!

WunderBlogs® & News

Nearby

Air Quality

  Air Quality AQ Index Pollutant
Not available.

Snow Depth

Station Depth Elevation

Earthquake Activity

City Distance Mag. Time & Date
Minimum magnitude displayed is 2.5.

Coastal Water Temperatures

Place Temperature

Nearby Weather Stations